sensor_id;sensor_type;location;lat;lon;timestamp;P1;durP1;ratioP1;P2;durP2;ratioP2
22841;SDS011;11587;47.064;15.444;2023-02-04T00:01:34;0.30;;;0.30;;
22841;SDS011;11587;47.064;15.444;2023-02-04T00:04:00;0.30;;;0.30;;
22841;SDS011;11587;47.064;15.444;2023-02-04T00:06:26;0.30;;;0.30;;
22841;SDS011;11587;47.064;15.444;2023-02-04T00:08:51;0.20;;;0.20;;
22841;SDS011;11587;47.064;15.444;2023-02-04T00:11:17;0.20;;;0.20;;
22841;SDS011;11587;47.064;15.444;2023-02-04T00:13:43;0.30;;;0.30;;
22841;SDS011;11587;47.064;15.444;2023-02-04T00:16:08;0.30;;;0.30;;
22841;SDS011;11587;47.064;15.444;2023-02-04T00:18:34;0.30;;;0.30;;
22841;SDS011;11587;47.064;15.444;2023-02-04T00:21:00;0.20;;;0.20;;
22841;SDS011;11587;47.064;15.444;2023-02-04T00:23:25;0.20;;;0.20;;
22841;SDS011;11587;47.064;15.444;2023-02-04T00:25:51;0.30;;;0.30;;
22841;SDS011;11587;47.064;15.444;2023-02-04T00:28:17;0.30;;;0.30;;
22841;SDS011;11587;47.064;15.444;2023-02-04T00:30:42;0.28;;;0.28;;
22841;SDS011;11587;47.064;15.444;2023-02-04T00:33:08;0.20;;;0.20;;
22841;SDS011;11587;47.064;15.444;2023-02-04T00:35:34;0.30;;;0.30;;
22841;SDS011;11587;47.064;15.444;2023-02-04T00:38:02;0.30;;;0.30;;
22841;SDS011;11587;47.064;15.444;2023-02-04T00:40:28;0.30;;;0.30;;
22841;SDS011;11587;47.064;15.444;2023-02-04T00:42:54;0.20;;;0.20;;
22841;SDS011;11587;47.064;15.444;2023-02-04T00:45:20;0.20;;;0.20;;
22841;SDS011;11587;47.064;15.444;2023-02-04T00:47:45;0.30;;;0.30;;
22841;SDS011;11587;47.064;15.444;2023-02-04T00:50:11;0.30;;;0.30;;
22841;SDS011;11587;47.064;15.444;2023-02-04T00:52:37;0.32;;;0.32;;
22841;SDS011;11587;47.064;15.444;2023-02-04T00:55:03;0.20;;;0.20;;
22841;SDS011;11587;47.064;15.444;2023-02-04T00:57:29;0.30;;;0.30;;
22841;SDS011;11587;47.064;15.444;2023-02-04T00:59:55;0.30;;;0.30;;
22841;SDS011;11587;47.064;15.444;2023-02-04T01:02:20;0.40;;;0.40;;
22841;SDS011;11587;47.064;15.444;2023-02-04T01:04:46;0.30;;;0.30;;
22841;SDS011;11587;47.064;15.444;2023-02-04T01:07:12;0.20;;;0.20;;
22841;SDS011;11587;47.064;15.444;2023-02-04T01:09:37;0.20;;;0.20;;
22841;SDS011;11587;47.064;15.444;2023-02-04T01:12:03;0.30;;;0.30;;
22841;SDS011;11587;47.064;15.444;2023-02-04T01:14:29;0.20;;;0.20;;
22841;SDS011;11587;47.064;15.444;2023-02-04T01:16:54;0.10;;;0.10;;
22841;SDS011;11587;47.064;15.444;2023-02-04T01:19:20;0.17;;;0.17;;
22841;SDS011;11587;47.064;15.444;2023-02-04T01:21:46;0.20;;;0.20;;
22841;SDS011;11587;47.064;15.444;2023-02-04T01:24:11;0.20;;;0.20;;
22841;SDS011;11587;47.064;15.444;2023-02-04T01:26:37;0.10;;;0.10;;
22841;SDS011;11587;47.064;15.444;2023-02-04T01:29:03;0.17;;;0.17;;
22841;SDS011;11587;47.064;15.444;2023-02-04T01:31:28;0.20;;;0.20;;
22841;SDS011;11587;47.064;15.444;2023-02-04T01:33:55;0.20;;;0.20;;
22841;SDS011;11587;47.064;15.444;2023-02-04T01:36:21;0.20;;;0.20;;
22841;SDS011;11587;47.064;15.444;2023-02-04T01:38:50;0.10;;;0.10;;
22841;SDS011;11587;47.064;15.444;2023-02-04T01:41:16;0.20;;;0.20;;
22841;SDS011;11587;47.064;15.444;2023-02-04T01:43:42;0.20;;;0.20;;
22841;SDS011;11587;47.064;15.444;2023-02-04T01:46:09;0.20;;;0.20;;
22841;SDS011;11587;47.064;15.444;2023-02-04T01:48:35;0.10;;;0.10;;
22841;SDS011;11587;47.064;15.444;2023-02-04T01:51:02;0.20;;;0.20;;
22841;SDS011;11587;47.064;15.444;2023-02-04T01:53:33;0.20;;;0.20;;
22841;SDS011;11587;47.064;15.444;2023-02-04T01:56:00;0.20;;;0.20;;
22841;SDS011;11587;47.064;15.444;2023-02-04T01:58:28;0.10;;;0.10;;
22841;SDS011;11587;47.064;15.444;2023-02-04T02:00:56;0.20;;;0.20;;
22841;SDS011;11587;47.064;15.444;2023-02-04T02:03:21;0.20;;;0.20;;
22841;SDS011;11587;47.064;15.444;2023-02-04T02:05:48;0.20;;;0.20;;
22841;SDS011;11587;47.064;15.444;2023-02-04T02:08:16;0.10;;;0.10;;
22841;SDS011;11587;47.064;15.444;2023-02-04T02:10:45;0.20;;;0.20;;
22841;SDS011;11587;47.064;15.444;2023-02-04T02:13:15;0.20;;;0.20;;
22841;SDS011;11587;47.064;15.444;2023-02-04T02:15:42;0.20;;;0.20;;
22841;SDS011;11587;47.064;15.444;2023-02-04T02:18:09;0.20;;;0.20;;
22841;SDS011;11587;47.064;15.444;2023-02-04T02:20:35;0.20;;;0.20;;
22841;SDS011;11587;47.064;15.444;2023-02-04T02:25:49;0.20;;;0.20;;
22841;SDS011;11587;47.064;15.444;2023-02-04T02:28:16;0.20;;;0.20;;
22841;SDS011;11587;47.064;15.444;2023-02-04T02:30:44;0.20;;;0.20;;
22841;SDS011;11587;47.064;15.444;2023-02-04T02:33:13;0.20;;;0.20;;
22841;SDS011;11587;47.064;15.444;2023-02-04T02:35:41;0.20;;;0.20;;
22841;SDS011;11587;47.064;15.444;2023-02-04T02:38:11;0.20;;;0.20;;
22841;SDS011;11587;47.064;15.444;2023-02-04T02:40:37;0.20;;;0.20;;
22841;SDS011;11587;47.064;15.444;2023-02-04T02:43:03;0.20;;;0.20;;
22841;SDS011;11587;47.064;15.444;2023-02-04T02:45:30;0.20;;;0.20;;
22841;SDS011;11587;47.064;15.444;2023-02-04T02:47:58;0.20;;;0.20;;
22841;SDS011;11587;47.064;15.444;2023-02-04T02:50:28;0.20;;;0.20;;
22841;SDS011;11587;47.064;15.444;2023-02-04T02:52:55;0.20;;;0.20;;
22841;SDS011;11587;47.064;15.444;2023-02-04T02:55:22;0.20;;;0.20;;
22841;SDS011;11587;47.064;15.444;2023-02-04T02:57:50;0.20;;;0.20;;
22841;SDS011;11587;47.064;15.444;2023-02-04T03:00:19;0.20;;;0.20;;
22841;SDS011;11587;47.064;15.444;2023-02-04T03:02:53;0.13;;;0.13;;
22841;SDS011;11587;47.064;15.444;2023-02-04T03:05:22;0.20;;;0.20;;
22841;SDS011;11587;47.064;15.444;2023-02-04T03:07:48;0.20;;;0.20;;
22841;SDS011;11587;47.064;15.444;2023-02-04T03:10:15;0.20;;;0.20;;
22841;SDS011;11587;47.064;15.444;2023-02-04T03:12:42;0.20;;;0.20;;
22841;SDS011;11587;47.064;15.444;2023-02-04T03:15:09;0.20;;;0.20;;
22841;SDS011;11587;47.064;15.444;2023-02-04T03:17:35;0.20;;;0.20;;
22841;SDS011;11587;47.064;15.444;2023-02-04T03:20:01;0.20;;;0.20;;
22841;SDS011;11587;47.064;15.444;2023-02-04T03:22:28;0.20;;;0.20;;
22841;SDS011;11587;47.064;15.444;2023-02-04T03:24:53;0.20;;;0.20;;
22841;SDS011;11587;47.064;15.444;2023-02-04T03:27:22;0.17;;;0.17;;
22841;SDS011;11587;47.064;15.444;2023-02-04T03:29:48;0.20;;;0.20;;
22841;SDS011;11587;47.064;15.444;2023-02-04T03:32:14;0.20;;;0.20;;
22841;SDS011;11587;47.064;15.444;2023-02-04T03:34:40;0.17;;;0.17;;
22841;SDS011;11587;47.064;15.444;2023-02-04T03:37:05;0.20;;;0.20;;
22841;SDS011;11587;47.064;15.444;2023-02-04T03:39:31;0.20;;;0.20;;
22841;SDS011;11587;47.064;15.444;2023-02-04T03:41:57;0.20;;;0.20;;
22841;SDS011;11587;47.064;15.444;2023-02-04T03:44:22;0.13;;;0.13;;
22841;SDS011;11587;47.064;15.444;2023-02-04T03:46:51;0.20;;;0.20;;
22841;SDS011;11587;47.064;15.444;2023-02-04T03:49:19;0.20;;;0.20;;
22841;SDS011;11587;47.064;15.444;2023-02-04T03:51:46;0.20;;;0.20;;
22841;SDS011;11587;47.064;15.444;2023-02-04T03:54:11;0.20;;;0.20;;
22841;SDS011;11587;47.064;15.444;2023-02-04T03:56:37;0.20;;;0.20;;
22841;SDS011;11587;47.064;15.444;2023-02-04T03:59:03;0.20;;;0.20;;
22841;SDS011;11587;47.064;15.444;2023-02-04T04:01:28;0.20;;;0.20;;
22841;SDS011;11587;47.064;15.444;2023-02-04T04:03:54;0.20;;;0.20;;
22841;SDS011;11587;47.064;15.444;2023-02-04T04:06:20;0.20;;;0.20;;
22841;SDS011;11587;47.064;15.444;2023-02-04T04:08:45;0.20;;;0.20;;
22841;SDS011;11587;47.064;15.444;2023-02-04T04:11:11;0.20;;;0.20;;
22841;SDS011;11587;47.064;15.444;2023-02-04T04:13:37;0.20;;;0.20;;
22841;SDS011;11587;47.064;15.444;2023-02-04T04:16:03;0.10;;;0.10;;
22841;SDS011;11587;47.064;15.444;2023-02-04T04:18:29;0.20;;;0.20;;
22841;SDS011;11587;47.064;15.444;2023-02-04T04:20:56;0.20;;;0.20;;
22841;SDS011;11587;47.064;15.444;2023-02-04T04:23:22;0.20;;;0.20;;
22841;SDS011;11587;47.064;15.444;2023-02-04T04:25:48;0.20;;;0.20;;
22841;SDS011;11587;47.064;15.444;2023-02-04T04:28:14;0.20;;;0.20;;
22841;SDS011;11587;47.064;15.444;2023-02-04T04:30:39;0.17;;;0.17;;
22841;SDS011;11587;47.064;15.444;2023-02-04T04:33:05;0.20;;;0.20;;
22841;SDS011;11587;47.064;15.444;2023-02-04T04:35:31;0.20;;;0.20;;
22841;SDS011;11587;47.064;15.444;2023-02-04T04:37:56;0.30;;;0.30;;
22841;SDS011;11587;47.064;15.444;2023-02-04T04:40:22;0.20;;;0.20;;
22841;SDS011;11587;47.064;15.444;2023-02-04T04:42:48;0.20;;;0.20;;
22841;SDS011;11587;47.064;15.444;2023-02-04T04:45:13;0.20;;;0.20;;
22841;SDS011;11587;47.064;15.444;2023-02-04T04:47:39;0.20;;;0.20;;
22841;SDS011;11587;47.064;15.444;2023-02-04T04:50:05;0.20;;;0.20;;
22841;SDS011;11587;47.064;15.444;2023-02-04T04:52:31;0.20;;;0.20;;
22841;SDS011;11587;47.064;15.444;2023-02-04T04:54:56;0.20;;;0.20;;
22841;SDS011;11587;47.064;15.444;2023-02-04T04:57:22;0.20;;;0.20;;
22841;SDS011;11587;47.064;15.444;2023-02-04T04:59:48;0.20;;;0.20;;
22841;SDS011;11587;47.064;15.444;2023-02-04T05:02:13;0.20;;;0.20;;
22841;SDS011;11587;47.064;15.444;2023-02-04T05:04:39;0.20;;;0.20;;
22841;SDS011;11587;47.064;15.444;2023-02-04T05:07:04;0.20;;;0.20;;
22841;SDS011;11587;47.064;15.444;2023-02-04T05:09:30;0.20;;;0.20;;
22841;SDS011;11587;47.064;15.444;2023-02-04T05:11:56;0.20;;;0.20;;
22841;SDS011;11587;47.064;15.444;2023-02-04T05:14:21;0.20;;;0.20;;
22841;SDS011;11587;47.064;15.444;2023-02-04T05:16:48;0.20;;;0.20;;
22841;SDS011;11587;47.064;15.444;2023-02-04T05:19:13;0.10;;;0.10;;
22841;SDS011;11587;47.064;15.444;2023-02-04T05:21:39;0.20;;;0.20;;
22841;SDS011;11587;47.064;15.444;2023-02-04T05:24:05;0.20;;;0.20;;
22841;SDS011;11587;47.064;15.444;2023-02-04T05:26:31;0.20;;;0.20;;
22841;SDS011;11587;47.064;15.444;2023-02-04T05:28:57;0.10;;;0.10;;
22841;SDS011;11587;47.064;15.444;2023-02-04T05:31:26;0.20;;;0.20;;
22841;SDS011;11587;47.064;15.444;2023-02-04T05:33:52;0.20;;;0.20;;
22841;SDS011;11587;47.064;15.444;2023-02-04T05:36:18;0.20;;;0.20;;
22841;SDS011;11587;47.064;15.444;2023-02-04T05:38:44;0.13;;;0.13;;
22841;SDS011;11587;47.064;15.444;2023-02-04T05:41:10;0.20;;;0.20;;
22841;SDS011;11587;47.064;15.444;2023-02-04T05:43:36;0.20;;;0.20;;
22841;SDS011;11587;47.064;15.444;2023-02-04T05:46:02;0.20;;;0.20;;
22841;SDS011;11587;47.064;15.444;2023-02-04T05:48:27;0.20;;;0.20;;
22841;SDS011;11587;47.064;15.444;2023-02-04T05:50:53;0.20;;;0.20;;
22841;SDS011;11587;47.064;15.444;2023-02-04T05:53:19;0.20;;;0.20;;
22841;SDS011;11587;47.064;15.444;2023-02-04T05:55:44;0.20;;;0.20;;
22841;SDS011;11587;47.064;15.444;2023-02-04T05:58:10;0.20;;;0.20;;
22841;SDS011;11587;47.064;15.444;2023-02-04T06:00:36;0.10;;;0.10;;
22841;SDS011;11587;47.064;15.444;2023-02-04T06:03:02;0.20;;;0.20;;
22841;SDS011;11587;47.064;15.444;2023-02-04T06:05:27;0.20;;;0.20;;
22841;SDS011;11587;47.064;15.444;2023-02-04T06:07:53;0.20;;;0.20;;
22841;SDS011;11587;47.064;15.444;2023-02-04T06:10:19;0.20;;;0.20;;
22841;SDS011;11587;47.064;15.444;2023-02-04T06:12:45;0.20;;;0.20;;
22841;SDS011;11587;47.064;15.444;2023-02-04T06:15:11;0.20;;;0.20;;
22841;SDS011;11587;47.064;15.444;2023-02-04T06:17:37;0.20;;;0.20;;
22841;SDS011;11587;47.064;15.444;2023-02-04T06:20:03;0.20;;;0.20;;
22841;SDS011;11587;47.064;15.444;2023-02-04T06:22:30;0.20;;;0.20;;
22841;SDS011;11587;47.064;15.444;2023-02-04T06:24:55;0.20;;;0.20;;
22841;SDS011;11587;47.064;15.444;2023-02-04T06:27:21;0.20;;;0.20;;
22841;SDS011;11587;47.064;15.444;2023-02-04T06:29:50;0.20;;;0.20;;
22841;SDS011;11587;47.064;15.444;2023-02-04T06:32:16;0.20;;;0.20;;
22841;SDS011;11587;47.064;15.444;2023-02-04T06:34:43;0.25;;;0.25;;
22841;SDS011;11587;47.064;15.444;2023-02-04T06:37:08;0.10;;;0.10;;
22841;SDS011;11587;47.064;15.444;2023-02-04T06:39:34;0.20;;;0.20;;
22841;SDS011;11587;47.064;15.444;2023-02-04T06:42:00;0.20;;;0.20;;
22841;SDS011;11587;47.064;15.444;2023-02-04T06:44:26;0.20;;;0.20;;
22841;SDS011;11587;47.064;15.444;2023-02-04T06:46:52;0.20;;;0.20;;
22841;SDS011;11587;47.064;15.444;2023-02-04T06:49:17;0.20;;;0.20;;
22841;SDS011;11587;47.064;15.444;2023-02-04T06:51:43;0.20;;;0.20;;
22841;SDS011;11587;47.064;15.444;2023-02-04T06:54:09;0.20;;;0.20;;
22841;SDS011;11587;47.064;15.444;2023-02-04T06:56:34;0.20;;;0.20;;
22841;SDS011;11587;47.064;15.444;2023-02-04T06:59:00;0.20;;;0.20;;
22841;SDS011;11587;47.064;15.444;2023-02-04T07:01:26;0.20;;;0.20;;
22841;SDS011;11587;47.064;15.444;2023-02-04T07:03:51;0.20;;;0.20;;
22841;SDS011;11587;47.064;15.444;2023-02-04T07:06:17;0.20;;;0.20;;
22841;SDS011;11587;47.064;15.444;2023-02-04T07:08:43;0.20;;;0.20;;
22841;SDS011;11587;47.064;15.444;2023-02-04T07:11:08;0.10;;;0.10;;
22841;SDS011;11587;47.064;15.444;2023-02-04T07:13:34;0.20;;;0.20;;
22841;SDS011;11587;47.064;15.444;2023-02-04T07:16:00;0.20;;;0.20;;
22841;SDS011;11587;47.064;15.444;2023-02-04T07:18:25;0.20;;;0.20;;
22841;SDS011;11587;47.064;15.444;2023-02-04T07:20:51;0.20;;;0.20;;
22841;SDS011;11587;47.064;15.444;2023-02-04T07:23:17;0.30;;;0.30;;
22841;SDS011;11587;47.064;15.444;2023-02-04T07:25:42;0.20;;;0.20;;
22841;SDS011;11587;47.064;15.444;2023-02-04T07:28:08;0.20;;;0.20;;
22841;SDS011;11587;47.064;15.444;2023-02-04T07:30:33;0.20;;;0.20;;
22841;SDS011;11587;47.064;15.444;2023-02-04T07:32:59;0.20;;;0.20;;
22841;SDS011;11587;47.064;15.444;2023-02-04T07:35:25;0.30;;;0.30;;
22841;SDS011;11587;47.064;15.444;2023-02-04T07:37:51;0.20;;;0.20;;
22841;SDS011;11587;47.064;15.444;2023-02-04T07:40:16;0.30;;;0.30;;
22841;SDS011;11587;47.064;15.444;2023-02-04T07:42:42;0.20;;;0.20;;
22841;SDS011;11587;47.064;15.444;2023-02-04T07:45:08;0.20;;;0.20;;
22841;SDS011;11587;47.064;15.444;2023-02-04T07:47:34;0.30;;;0.30;;
22841;SDS011;11587;47.064;15.444;2023-02-04T07:49:59;0.20;;;0.20;;
22841;SDS011;11587;47.064;15.444;2023-02-04T07:52:25;0.20;;;0.20;;
22841;SDS011;11587;47.064;15.444;2023-02-04T07:54:51;0.20;;;0.20;;
22841;SDS011;11587;47.064;15.444;2023-02-04T07:57:18;0.40;;;0.40;;
22841;SDS011;11587;47.064;15.444;2023-02-04T07:59:44;0.40;;;0.40;;
22841;SDS011;11587;47.064;15.444;2023-02-04T08:02:09;0.30;;;0.30;;
22841;SDS011;11587;47.064;15.444;2023-02-04T08:04:35;0.40;;;0.40;;
22841;SDS011;11587;47.064;15.444;2023-02-04T08:07:02;0.40;;;0.40;;
22841;SDS011;11587;47.064;15.444;2023-02-04T08:09:28;0.30;;;0.30;;
22841;SDS011;11587;47.064;15.444;2023-02-04T08:11:54;0.40;;;0.40;;
22841;SDS011;11587;47.064;15.444;2023-02-04T08:14:19;0.40;;;0.40;;
22841;SDS011;11587;47.064;15.444;2023-02-04T08:16:45;0.40;;;0.40;;
22841;SDS011;11587;47.064;15.444;2023-02-04T08:19:11;0.43;;;0.43;;
22841;SDS011;11587;47.064;15.444;2023-02-04T08:21:43;0.40;;;0.40;;
22841;SDS011;11587;47.064;15.444;2023-02-04T08:24:10;0.40;;;0.40;;
22841;SDS011;11587;47.064;15.444;2023-02-04T08:26:40;0.40;;;0.40;;
22841;SDS011;11587;47.064;15.444;2023-02-04T08:29:06;0.30;;;0.30;;
22841;SDS011;11587;47.064;15.444;2023-02-04T08:31:33;0.40;;;0.40;;
22841;SDS011;11587;47.064;15.444;2023-02-04T08:34:00;0.40;;;0.40;;
22841;SDS011;11587;47.064;15.444;2023-02-04T08:36:26;0.30;;;0.30;;
22841;SDS011;11587;47.064;15.444;2023-02-04T08:38:51;0.40;;;0.40;;
22841;SDS011;11587;47.064;15.444;2023-02-04T08:41:17;0.40;;;0.40;;
22841;SDS011;11587;47.064;15.444;2023-02-04T08:43:43;0.30;;;0.30;;
22841;SDS011;11587;47.064;15.444;2023-02-04T08:46:08;0.40;;;0.40;;
22841;SDS011;11587;47.064;15.444;2023-02-04T08:48:34;0.47;;;0.47;;
22841;SDS011;11587;47.064;15.444;2023-02-04T08:51:00;0.30;;;0.30;;
22841;SDS011;11587;47.064;15.444;2023-02-04T08:53:25;0.40;;;0.40;;
22841;SDS011;11587;47.064;15.444;2023-02-04T08:55:51;0.45;;;0.45;;
22841;SDS011;11587;47.064;15.444;2023-02-04T08:58:17;0.30;;;0.30;;
22841;SDS011;11587;47.064;15.444;2023-02-04T09:00:42;0.40;;;0.40;;
22841;SDS011;11587;47.064;15.444;2023-02-04T09:03:08;0.50;;;0.50;;
22841;SDS011;11587;47.064;15.444;2023-02-04T09:05:34;0.40;;;0.40;;
22841;SDS011;11587;47.064;15.444;2023-02-04T09:07:59;0.40;;;0.40;;
22841;SDS011;11587;47.064;15.444;2023-02-04T09:10:25;0.30;;;0.30;;
22841;SDS011;11587;47.064;15.444;2023-02-04T09:12:51;0.40;;;0.40;;
22841;SDS011;11587;47.064;15.444;2023-02-04T09:15:20;0.47;;;0.47;;
22841;SDS011;11587;47.064;15.444;2023-02-04T09:17:51;0.30;;;0.30;;
22841;SDS011;11587;47.064;15.444;2023-02-04T09:20:19;0.20;;;0.20;;
22841;SDS011;11587;47.064;15.444;2023-02-04T09:22:46;0.20;;;0.20;;
22841;SDS011;11587;47.064;15.444;2023-02-04T09:25:14;0.20;;;0.20;;
22841;SDS011;11587;47.064;15.444;2023-02-04T09:27:39;0.20;;;0.20;;
22841;SDS011;11587;47.064;15.444;2023-02-04T09:30:05;0.20;;;0.20;;
22841;SDS011;11587;47.064;15.444;2023-02-04T09:32:31;0.20;;;0.20;;
22841;SDS011;11587;47.064;15.444;2023-02-04T09:34:57;0.40;;;0.40;;
22841;SDS011;11587;47.064;15.444;2023-02-04T09:37:22;0.40;;;0.40;;
22841;SDS011;11587;47.064;15.444;2023-02-04T09:39:50;0.30;;;0.30;;
22841;SDS011;11587;47.064;15.444;2023-02-04T09:42:16;0.40;;;0.40;;
22841;SDS011;11587;47.064;15.444;2023-02-04T09:44:50;0.40;;;0.40;;
22841;SDS011;11587;47.064;15.444;2023-02-04T09:47:15;0.30;;;0.30;;
22841;SDS011;11587;47.064;15.444;2023-02-04T09:49:48;0.40;;;0.40;;
22841;SDS011;11587;47.064;15.444;2023-02-04T09:52:14;0.40;;;0.40;;
22841;SDS011;11587;47.064;15.444;2023-02-04T09:54:41;0.30;;;0.30;;
22841;SDS011;11587;47.064;15.444;2023-02-04T09:57:10;0.40;;;0.40;;
22841;SDS011;11587;47.064;15.444;2023-02-04T09:59:44;0.40;;;0.40;;
22841;SDS011;11587;47.064;15.444;2023-02-04T10:02:18;0.30;;;0.30;;
22841;SDS011;11587;47.064;15.444;2023-02-04T10:04:46;0.40;;;0.40;;
22841;SDS011;11587;47.064;15.444;2023-02-04T10:07:12;0.40;;;0.40;;
22841;SDS011;11587;47.064;15.444;2023-02-04T10:09:46;0.30;;;0.30;;
22841;SDS011;11587;47.064;15.444;2023-02-04T10:12:12;0.30;;;0.30;;
22841;SDS011;11587;47.064;15.444;2023-02-04T10:14:38;0.40;;;0.40;;
22841;SDS011;11587;47.064;15.444;2023-02-04T10:17:04;0.40;;;0.40;;
22841;SDS011;11587;47.064;15.444;2023-02-04T10:19:32;0.20;;;0.20;;
22841;SDS011;11587;47.064;15.444;2023-02-04T10:21:58;0.30;;;0.30;;
22841;SDS011;11587;47.064;15.444;2023-02-04T10:24:24;0.40;;;0.40;;
22841;SDS011;11587;47.064;15.444;2023-02-04T10:26:52;0.20;;;0.20;;
22841;SDS011;11587;47.064;15.444;2023-02-04T10:29:22;0.30;;;0.30;;
22841;SDS011;11587;47.064;15.444;2023-02-04T10:31:51;0.40;;;0.40;;
22841;SDS011;11587;47.064;15.444;2023-02-04T10:36:48;0.30;;;0.30;;
22841;SDS011;11587;47.064;15.444;2023-02-04T10:39:23;0.30;;;0.30;;
22841;SDS011;11587;47.064;15.444;2023-02-04T10:44:18;0.20;;;0.20;;
22841;SDS011;11587;47.064;15.444;2023-02-04T10:47:12;0.30;;;0.30;;
22841;SDS011;11587;47.064;15.444;2023-02-04T10:49:54;0.30;;;0.30;;
22841;SDS011;11587;47.064;15.444;2023-02-04T10:52:33;0.40;;;0.40;;
22841;SDS011;11587;47.064;15.444;2023-02-04T10:55:04;0.40;;;0.40;;
22841;SDS011;11587;47.064;15.444;2023-02-04T10:57:33;0.20;;;0.20;;
22841;SDS011;11587;47.064;15.444;2023-02-04T11:00:03;0.20;;;0.20;;
22841;SDS011;11587;47.064;15.444;2023-02-04T11:05:15;0.20;;;0.20;;
22841;SDS011;11587;47.064;15.444;2023-02-04T11:07:43;0.20;;;0.20;;
22841;SDS011;11587;47.064;15.444;2023-02-04T11:10:29;0.10;;;0.10;;
22841;SDS011;11587;47.064;15.444;2023-02-04T11:20:36;0.00;;;0.00;;
22841;SDS011;11587;47.064;15.444;2023-02-04T11:34:02;0.00;;;0.00;;
22841;SDS011;11587;47.064;15.444;2023-02-04T11:42:00;0.10;;;0.10;;
22841;SDS011;11587;47.064;15.444;2023-02-04T11:44:26;0.10;;;0.10;;
22841;SDS011;11587;47.064;15.444;2023-02-04T11:46:52;0.10;;;0.10;;
22841;SDS011;11587;47.064;15.444;2023-02-04T11:49:20;0.10;;;0.10;;
22841;SDS011;11587;47.064;15.444;2023-02-04T11:51:49;0.20;;;0.20;;
22841;SDS011;11587;47.064;15.444;2023-02-04T11:54:15;0.20;;;0.20;;
22841;SDS011;11587;47.064;15.444;2023-02-04T11:56:46;0.20;;;0.20;;
22841;SDS011;11587;47.064;15.444;2023-02-04T11:59:12;0.20;;;0.20;;
22841;SDS011;11587;47.064;15.444;2023-02-04T12:01:39;0.20;;;0.20;;
22841;SDS011;11587;47.064;15.444;2023-02-04T12:04:20;0.20;;;0.20;;
22841;SDS011;11587;47.064;15.444;2023-02-04T12:06:58;0.20;;;0.20;;
22841;SDS011;11587;47.064;15.444;2023-02-04T12:09:26;0.10;;;0.10;;
22841;SDS011;11587;47.064;15.444;2023-02-04T12:14:32;0.20;;;0.20;;
22841;SDS011;11587;47.064;15.444;2023-02-04T12:17:00;0.20;;;0.20;;
22841;SDS011;11587;47.064;15.444;2023-02-04T12:19:39;0.20;;;0.20;;
22841;SDS011;11587;47.064;15.444;2023-02-04T12:22:04;0.20;;;0.20;;
22841;SDS011;11587;47.064;15.444;2023-02-04T12:24:30;0.20;;;0.20;;
22841;SDS011;11587;47.064;15.444;2023-02-04T12:26:55;0.10;;;0.10;;
22841;SDS011;11587;47.064;15.444;2023-02-04T12:29:21;0.10;;;0.10;;
22841;SDS011;11587;47.064;15.444;2023-02-04T12:31:47;0.10;;;0.10;;
22841;SDS011;11587;47.064;15.444;2023-02-04T12:34:12;0.10;;;0.10;;
22841;SDS011;11587;47.064;15.444;2023-02-04T12:36:38;0.10;;;0.10;;
22841;SDS011;11587;47.064;15.444;2023-02-04T12:39:04;0.10;;;0.10;;
22841;SDS011;11587;47.064;15.444;2023-02-04T12:41:29;0.10;;;0.10;;
22841;SDS011;11587;47.064;15.444;2023-02-04T12:43:55;0.10;;;0.10;;
22841;SDS011;11587;47.064;15.444;2023-02-04T12:46:20;0.20;;;0.20;;
22841;SDS011;11587;47.064;15.444;2023-02-04T12:48:47;0.10;;;0.10;;
22841;SDS011;11587;47.064;15.444;2023-02-04T12:51:12;0.20;;;0.20;;
22841;SDS011;11587;47.064;15.444;2023-02-04T12:53:38;0.20;;;0.20;;
22841;SDS011;11587;47.064;15.444;2023-02-04T12:56:04;0.20;;;0.20;;
22841;SDS011;11587;47.064;15.444;2023-02-04T12:58:30;0.20;;;0.20;;
22841;SDS011;11587;47.064;15.444;2023-02-04T13:00:56;0.20;;;0.20;;
22841;SDS011;11587;47.064;15.444;2023-02-04T13:03:21;0.20;;;0.20;;
22841;SDS011;11587;47.064;15.444;2023-02-04T13:05:48;0.20;;;0.20;;
22841;SDS011;11587;47.064;15.444;2023-02-04T13:08:13;0.20;;;0.20;;
22841;SDS011;11587;47.064;15.444;2023-02-04T13:10:39;0.20;;;0.20;;
22841;SDS011;11587;47.064;15.444;2023-02-04T13:13:05;0.20;;;0.20;;
22841;SDS011;11587;47.064;15.444;2023-02-04T13:15:30;0.20;;;0.20;;
22841;SDS011;11587;47.064;15.444;2023-02-04T13:17:56;0.20;;;0.20;;
22841;SDS011;11587;47.064;15.444;2023-02-04T13:20:22;0.20;;;0.20;;
22841;SDS011;11587;47.064;15.444;2023-02-04T13:22:47;0.30;;;0.30;;
22841;SDS011;11587;47.064;15.444;2023-02-04T13:25:13;0.30;;;0.30;;
22841;SDS011;11587;47.064;15.444;2023-02-04T13:27:39;0.30;;;0.30;;
22841;SDS011;11587;47.064;15.444;2023-02-04T13:30:06;0.20;;;0.20;;
22841;SDS011;11587;47.064;15.444;2023-02-04T13:32:32;0.20;;;0.20;;
22841;SDS011;11587;47.064;15.444;2023-02-04T13:34:58;0.20;;;0.20;;
22841;SDS011;11587;47.064;15.444;2023-02-04T13:37:24;0.20;;;0.20;;
22841;SDS011;11587;47.064;15.444;2023-02-04T13:39:50;0.20;;;0.20;;
22841;SDS011;11587;47.064;15.444;2023-02-04T13:42:15;0.20;;;0.20;;
22841;SDS011;11587;47.064;15.444;2023-02-04T13:44:41;0.17;;;0.17;;
22841;SDS011;11587;47.064;15.444;2023-02-04T13:47:06;0.10;;;0.10;;
22841;SDS011;11587;47.064;15.444;2023-02-04T13:49:32;0.20;;;0.20;;
22841;SDS011;11587;47.064;15.444;2023-02-04T13:51:58;0.20;;;0.20;;
22841;SDS011;11587;47.064;15.444;2023-02-04T13:54:24;0.20;;;0.20;;
22841;SDS011;11587;47.064;15.444;2023-02-04T13:56:50;0.20;;;0.20;;
22841;SDS011;11587;47.064;15.444;2023-02-04T13:59:15;0.10;;;0.10;;
22841;SDS011;11587;47.064;15.444;2023-02-04T14:01:41;0.10;;;0.10;;
22841;SDS011;11587;47.064;15.444;2023-02-04T14:04:07;0.20;;;0.20;;
22841;SDS011;11587;47.064;15.444;2023-02-04T14:06:33;0.20;;;0.20;;
22841;SDS011;11587;47.064;15.444;2023-02-04T14:09:02;0.20;;;0.20;;
22841;SDS011;11587;47.064;15.444;2023-02-04T14:11:28;0.20;;;0.20;;
22841;SDS011;11587;47.064;15.444;2023-02-04T14:13:54;0.17;;;0.17;;
22841;SDS011;11587;47.064;15.444;2023-02-04T14:16:20;0.20;;;0.20;;
22841;SDS011;11587;47.064;15.444;2023-02-04T14:18:46;0.20;;;0.20;;
22841;SDS011;11587;47.064;15.444;2023-02-04T14:21:12;0.20;;;0.20;;
22841;SDS011;11587;47.064;15.444;2023-02-04T14:23:37;0.20;;;0.20;;
22841;SDS011;11587;47.064;15.444;2023-02-04T14:26:03;0.20;;;0.20;;
22841;SDS011;11587;47.064;15.444;2023-02-04T14:28:29;0.20;;;0.20;;
22841;SDS011;11587;47.064;15.444;2023-02-04T14:30:55;0.20;;;0.20;;
22841;SDS011;11587;47.064;15.444;2023-02-04T14:33:21;0.20;;;0.20;;
22841;SDS011;11587;47.064;15.444;2023-02-04T14:35:46;0.20;;;0.20;;
22841;SDS011;11587;47.064;15.444;2023-02-04T14:38:12;0.10;;;0.10;;
22841;SDS011;11587;47.064;15.444;2023-02-04T14:40:40;0.17;;;0.17;;
22841;SDS011;11587;47.064;15.444;2023-02-04T14:43:06;0.20;;;0.20;;
22841;SDS011;11587;47.064;15.444;2023-02-04T14:45:32;0.20;;;0.20;;
22841;SDS011;11587;47.064;15.444;2023-02-04T14:47:58;0.20;;;0.20;;
22841;SDS011;11587;47.064;15.444;2023-02-04T14:50:25;0.10;;;0.10;;
22841;SDS011;11587;47.064;15.444;2023-02-04T14:52:53;0.20;;;0.20;;
22841;SDS011;11587;47.064;15.444;2023-02-04T14:55:20;0.20;;;0.20;;
22841;SDS011;11587;47.064;15.444;2023-02-04T14:57:50;0.20;;;0.20;;
22841;SDS011;11587;47.064;15.444;2023-02-04T15:00:16;0.20;;;0.20;;
22841;SDS011;11587;47.064;15.444;2023-02-04T15:02:42;0.20;;;0.20;;
22841;SDS011;11587;47.064;15.444;2023-02-04T15:05:08;0.20;;;0.20;;
22841;SDS011;11587;47.064;15.444;2023-02-04T15:07:34;0.20;;;0.20;;